Time;durP1;ratioP1;P1;durP2;ratioP2;P2;SDS_P1;SDS_P2;PMS_P1;PMS_P2;Temp;Humidity;BMP_temperature;BMP_pressure;BME280_temperature;BME280_humidity;BME280_pressure;Samples;Min_cycle;Max_cycle;Signal;HPM_P1;HPM_P2
2022/05/01 00:02:21;;;;;;;9.63;4.18;;;;;;;16.15;42.45;101866.34;5009466;28;99229;-70
2022/05/01 00:04:47;;;;;;;11.77;4.20;;;;;;;16.21;42.19;101863.47;4998353;28;96678;-70
2022/05/01 00:07:14;;;;;;;9.35;4.10;;;;;;;16.37;41.89;101861.00;5006697;28;96868;-71
2022/05/01 00:09:40;;;;;;;9.27;4.43;;;;;;;15.82;42.62;101864.09;5009581;28;98353;-71
2022/05/01 00:12:08;;;;;;;11.02;3.90;;;;;;;16.09;42.07;101856.81;5005515;28;99927;-68
2022/05/01 00:14:34;;;;;;;10.45;3.90;;;;;;;15.80;42.79;101860.66;5000480;28;97032;-68
2022/05/01 00:17:01;;;;;;;9.00;3.65;;;;;;;15.90;42.39;101858.47;5004838;28;96779;-69
2022/05/01 00:19:29;;;;;;;10.88;4.40;;;;;;;15.69;42.72;101867.31;5007232;28;98730;-69
2022/05/01 00:21:58;;;;;;;7.85;4.00;;;;;;;15.69;42.66;101854.84;5004767;28;98898;-68
2022/05/01 00:24:25;;;;;;;10.20;3.85;;;;;;;15.94;42.29;101860.13;5004111;28;96790;-68
2022/05/01 00:26:51;;;;;;;11.55;4.10;;;;;;;15.64;42.37;101866.63;5005996;28;96858;-69
2022/05/01 00:29:18;;;;;;;10.93;4.28;;;;;;;15.56;42.59;101866.09;5003423;28;99042;-68
2022/05/01 00:31:44;;;;;;;4.80;3.60;;;;;;;15.60;42.44;101868.56;5006291;28;98872;-70
2022/05/01 00:36:56;;;;;;;5.30;3.45;;;;;;;15.88;42.05;101863.03;4999563;28;96855;-68
2022/05/01 00:39:22;;;;;;;13.05;3.75;;;;;;;16.01;41.50;101864.28;5001742;28;99328;-68
2022/05/01 00:41:49;;;;;;;6.07;3.40;;;;;;;15.81;42.25;101866.84;4999915;28;98786;-68
2022/05/01 00:44:17;;;;;;;10.25;4.00;;;;;;;15.82;42.07;101861.44;5002750;28;96794;-68
2022/05/01 00:46:45;;;;;;;7.07;3.72;;;;;;;16.27;41.79;101855.19;5000027;28;96855;-68
2022/05/01 00:49:13;;;;;;;15.30;4.13;;;;;;;15.78;41.64;101857.16;5009167;28;98933;-69
2022/05/01 00:51:45;;;;;;;8.07;3.78;;;;;;;15.03;43.19;101855.59;5002638;28;96770;-67
2022/05/01 00:54:13;;;;;;;15.07;4.45;;;;;;;15.11;43.37;101856.16;5003315;28;96819;-68
2022/05/01 00:56:41;;;;;;;11.20;4.05;;;;;;;15.13;43.27;101855.19;5001971;28;97622;-68
2022/05/01 00:59:10;;;;;;;12.43;3.88;;;;;;;15.38;43.05;101856.94;5008962;28;101969;-68
2022/05/01 01:01:36;;;;;;;14.25;4.30;;;;;;;15.50;42.38;101857.34;5005352;28;98783;-68
2022/05/01 01:04:03;;;;;;;14.93;4.43;;;;;;;15.66;41.72;101851.47;5007356;28;96903;-68
2022/05/01 01:06:30;;;;;;;9.50;4.68;;;;;;;14.81;43.88;101854.63;5002709;28;96876;-67
2022/05/01 01:08:56;;;;;;;6.32;3.95;;;;;;;15.16;42.83;101862.22;5002580;28;101475;-67
2022/05/01 01:11:24;;;;;;;8.30;4.45;;;;;;;15.06;43.29;101860.81;4998249;28;102653;-68
2022/05/01 01:13:51;;;;;;;7.97;3.88;;;;;;;15.36;43.02;101857.00;5004394;28;96796;-69
2022/05/01 01:16:17;;;;;;;7.15;4.03;;;;;;;15.63;42.09;101856.91;5006147;28;97260;-71
2022/05/01 01:18:45;;;;;;;9.55;4.70;;;;;;;15.80;41.71;101857.13;5003988;28;99107;-71
2022/05/01 01:21:13;;;;;;;11.52;4.57;;;;;;;16.05;41.31;101851.66;5005210;28;98740;-71
2022/05/01 01:23:41;;;;;;;11.23;4.28;;;;;;;15.82;41.55;101847.25;5004606;28;96740;-69
2022/05/01 01:26:09;;;;;;;12.07;4.60;;;;;;;15.50;42.25;101857.34;5011285;28;96767;-70
2022/05/01 01:28:38;;;;;;;12.57;4.10;;;;;;;15.00;43.17;101853.03;5004118;28;98953;-70
2022/05/01 01:33:52;;;;;;;9.82;4.72;;;;;;;15.58;42.22;101849.09;5003208;28;96730;-71
2022/05/01 01:36:23;;;;;;;10.32;4.47;;;;;;;15.29;42.36;101850.19;5007662;28;96913;-71
2022/05/01 01:38:50;;;;;;;10.35;4.40;;;;;;;15.74;41.62;101860.03;5004301;28;102059;-69
2022/05/01 01:41:23;;;;;;;11.68;4.32;;;;;;;15.88;40.92;101852.38;5005348;28;97423;-68
2022/05/01 01:43:50;;;;;;;9.10;4.68;;;;;;;15.42;41.81;101856.78;5005206;28;96942;-68
2022/05/01 01:46:17;;;;;;;13.13;4.68;;;;;;;15.59;41.76;101861.50;5001570;28;96871;-68
2022/05/01 01:48:44;;;;;;;10.95;4.55;;;;;;;15.38;42.06;101867.59;5005167;28;101466;-67
2022/05/01 01:51:11;;;;;;;7.18;4.13;;;;;;;14.70;43.39;101863.00;5002436;28;99194;-69
2022/05/01 01:53:40;;;;;;;11.10;4.30;;;;;;;14.95;42.86;101863.88;5003193;28;96864;-68
2022/05/01 01:56:08;;;;;;;10.68;4.38;;;;;;;15.02;42.63;101864.50;4997916;28;96841;-68
2022/05/01 01:58:35;;;;;;;10.23;4.57;;;;;;;15.21;42.25;101859.38;5001569;28;99327;-68
2022/05/01 02:01:02;;;;;;;6.78;3.83;;;;;;;15.09;42.55;101860.69;4997533;28;98998;-68
2022/05/01 02:03:28;;;;;;;9.23;3.70;;;;;;;15.30;41.84;101867.88;5006266;28;96848;-68
2022/05/01 02:05:55;;;;;;;8.98;4.03;;;;;;;15.51;41.33;101863.53;4999647;28;96908;-68
2022/05/01 02:08:22;;;;;;;7.40;3.65;;;;;;;15.67;40.77;101866.53;4992248;28;98499;-68
2022/05/01 02:10:50;;;;;;;8.95;3.70;;;;;;;15.82;40.54;101860.56;4994868;28;99022;-68
2022/05/01 02:13:17;;;;;;;7.93;3.63;;;;;;;15.67;40.54;101861.19;5002789;28;96837;-69
2022/05/01 02:15:44;;;;;;;12.73;4.43;;;;;;;15.82;40.49;101853.44;4999280;28;98810;-68
2022/05/01 02:18:10;;;;;;;9.07;3.95;;;;;;;15.58;40.78;101856.22;5000558;28;99075;-69
2022/05/01 02:23:24;;;;;;;8.95;3.92;;;;;;;15.45;40.99;101861.97;5001438;28;96952;-67
2022/05/01 02:25:52;;;;;;;4.82;3.55;;;;;;;15.53;40.87;101859.06;4999965;28;98764;-68
2022/05/01 02:28:19;;;;;;;11.40;3.60;;;;;;;15.22;41.56;101871.78;5000441;28;101233;-68
2022/05/01 02:30:46;;;;;;;10.75;4.65;;;;;;;14.90;42.67;101864.97;4999384;28;99749;-68
2022/05/01 02:33:12;;;;;;;11.63;3.95;;;;;;;14.53;42.90;101863.56;5000839;28;97166;-67
2022/05/01 02:35:40;;;;;;;9.55;4.32;;;;;;;14.53;43.18;101868.88;5002542;28;98500;-70
2022/05/01 02:38:06;;;;;;;10.50;4.22;;;;;;;14.44;43.28;101866.53;4999651;28;98955;-67
2022/05/01 02:40:33;;;;;;;8.75;4.20;;;;;;;14.66;43.02;101864.88;5005412;28;99124;-67
2022/05/01 02:43:01;;;;;;;7.55;4.53;;;;;;;14.98;42.71;101868.19;4999882;28;97207;-68
2022/05/01 02:45:28;;;;;;;16.70;4.43;;;;;;;14.84;42.53;101862.47;5002675;28;96800;-66
2022/05/01 02:47:55;;;;;;;8.43;3.90;;;;;;;15.15;42.17;101865.81;4997444;28;100754;-67
2022/05/01 02:50:22;;;;;;;8.88;3.95;;;;;;;14.70;42.92;101855.00;4992508;28;99707;-68
2022/05/01 02:52:51;;;;;;;9.55;3.42;;;;;;;15.08;42.14;101865.16;4990677;28;98956;-67
2022/05/01 02:55:17;;;;;;;7.93;4.32;;;;;;;14.83;42.98;101858.97;5008395;28;96942;-69
2022/05/01 02:57:44;;;;;;;12.88;3.90;;;;;;;14.93;42.66;101863.03;5002960;28;98702;-67
2022/05/01 03:00:16;;;;;;;7.97;4.00;;;;;;;14.92;42.68;101863.09;5009923;28;98935;-67
2022/05/01 03:02:43;;;;;;;10.55;3.45;;;;;;;15.04;42.83;101868.84;5008721;28;96837;-67
2022/05/01 03:05:10;;;;;;;9.40;3.75;;;;;;;15.04;42.46;101866.16;5006443;28;96800;-67
2022/05/01 03:07:36;;;;;;;17.70;3.60;;;;;;;14.83;42.89;101858.13;5006556;28;98982;-67
2022/05/01 03:10:03;;;;;;;9.45;3.53;;;;;;;14.64;43.31;101855.19;5002719;28;98906;-67
2022/05/01 03:12:29;;;;;;;9.60;4.13;;;;;;;14.80;43.10;101855.53;5001599;28;97606;-67
2022/05/01 03:14:57;;;;;;;8.73;3.70;;;;;;;14.67;43.56;101863.09;5008993;28;97129;-66
2022/05/01 03:17:25;;;;;;;8.20;4.18;;;;;;;14.79;43.33;101854.66;5001337;28;99417;-68
2022/05/01 03:22:35;;;;;;;9.50;3.83;;;;;;;14.80;43.02;101855.53;4999562;28;96802;-68
2022/05/01 03:25:02;;;;;;;12.70;4.22;;;;;;;14.88;43.05;101862.34;5000131;28;96863;-68
2022/05/01 03:27:47;;;;;;;9.70;3.63;;;;;;;14.98;43.09;101860.19;5003667;28;98932;-67
2022/05/01 03:30:16;;;;;;;12.52;3.75;;;;;;;14.38;43.91;101855.22;5009963;28;98887;-67
2022/05/01 03:32:45;;;;;;;6.75;3.85;;;;;;;14.59;43.76;101854.50;5003726;28;96918;-67
2022/05/01 03:35:12;;;;;;;7.15;4.13;;;;;;;14.68;43.92;101859.50;5005225;28;97251;-68
2022/05/01 03:37:38;;;;;;;7.72;3.75;;;;;;;14.37;44.50;101857.00;5005945;28;99219;-67
2022/05/01 03:40:06;;;;;;;9.30;4.25;;;;;;;14.49;44.35;101861.06;5007459;28;99086;-68
2022/05/01 03:42:32;;;;;;;12.43;3.78;;;;;;;14.33;44.75;101853.56;5009751;28;96924;-68
2022/05/01 03:44:58;;;;;;;8.73;4.22;;;;;;;14.03;45.49;101857.25;5001697;28;96934;-67
2022/05/01 03:47:25;;;;;;;13.45;3.97;;;;;;;13.87;46.11;101859.50;5003938;28;97768;-68
2022/05/01 03:50:02;;;;;;;7.43;4.40;;;;;;;14.04;45.98;101856.34;5000019;28;99750;-68
2022/05/01 03:52:28;;;;;;;7.63;4.30;;;;;;;14.08;45.60;101857.09;5002890;28;97090;-68
2022/05/01 03:54:55;;;;;;;11.18;3.97;;;;;;;13.80;46.37;101860.63;5001915;28;96813;-68
2022/05/01 03:57:21;;;;;;;12.02;4.72;;;;;;;14.29;45.48;101861.69;5002864;28;99021;-70
2022/05/01 03:59:48;;;;;;;9.38;4.03;;;;;;;14.09;45.78;101866.81;4996228;28;99337;-69
2022/05/01 04:02:15;;;;;;;9.98;4.30;;;;;;;14.29;45.10;101873.22;4999781;28;97355;-69
2022/05/01 04:04:42;;;;;;;13.40;4.47;;;;;;;14.64;44.43;101869.38;5003061;28;96868;-68
2022/05/01 04:07:10;;;;;;;7.45;3.42;;;;;;;14.48;44.71;101873.50;5008199;28;98185;-67
2022/05/01 04:09:37;;;;;;;13.73;4.47;;;;;;;14.32;44.98;101867.78;5004452;28;98915;-68
2022/05/01 04:12:04;;;;;;;8.43;4.07;;;;;;;14.11;45.45;101862.31;5004468;28;97167;-69
2022/05/01 04:14:32;;;;;;;9.85;3.95;;;;;;;14.26;45.44;101861.78;5004130;28;96899;-68
2022/05/01 04:16:58;;;;;;;13.05;4.10;;;;;;;14.11;45.71;101859.66;5004992;28;99522;-69
2022/05/01 04:19:25;;;;;;;12.68;3.85;;;;;;;14.15;45.69;101861.28;5004748;28;98910;-69
2022/05/01 04:22:26;;;;;;;7.22;3.67;;;;;;;14.33;45.46;101855.34;5007983;28;97066;-68
2022/05/01 04:24:53;;;;;;;5.35;3.40;;;;;;;14.55;44.60;101861.72;4992878;28;99568;-68
2022/05/01 04:27:20;;;;;;;10.23;4.53;;;;;;;14.56;44.41;101870.59;5003586;28;99460;-68
2022/05/01 04:29:47;;;;;;;6.43;3.78;;;;;;;14.48;44.30;101876.16;5010556;28;98080;-68
2022/05/01 04:32:16;;;;;;;12.90;4.13;;;;;;;14.55;44.45;101875.03;4997832;28;96967;-70
2022/05/01 04:34:42;;;;;;;8.25;4.25;;;;;;;14.50;44.66;101878.78;5005480;28;97451;-68
2022/05/01 04:37:09;;;;;;;10.60;4.78;;;;;;;14.74;43.90;101870.81;5003761;28;98952;-69
2022/05/01 04:39:37;;;;;;;7.15;3.90;;;;;;;14.85;43.80;101875.75;5000019;28;99652;-68
2022/05/01 04:42:04;;;;;;;11.18;4.30;;;;;;;14.48;44.15;101868.19;5001549;28;98503;-68
2022/05/01 04:44:30;;;;;;;7.78;3.70;;;;;;;14.46;44.29;101866.47;5002657;28;96958;-68
2022/05/01 04:46:57;;;;;;;10.07;4.13;;;;;;;14.39;44.51;101868.47;4997212;28;98738;-68
2022/05/01 04:49:23;;;;;;;10.48;4.47;;;;;;;14.29;44.28;101867.03;5004381;28;101416;-68
2022/05/01 04:51:49;;;;;;;7.70;4.13;;;;;;;14.62;43.59;101865.03;5001537;28;97349;-68
2022/05/01 04:54:16;;;;;;;6.22;3.65;;;;;;;14.74;43.31;101868.16;5005893;28;97786;-67
2022/05/01 04:59:28;;;;;;;6.93;3.85;;;;;;;15.64;41.48;101879.94;4997413;28;99168;-67
2022/05/01 05:01:55;;;;;;;5.78;3.60;;;;;;;15.79;41.05;101885.56;5002385;28;97270;-67
2022/05/01 05:04:22;;;;;;;12.05;4.50;;;;;;;15.98;40.42;101872.38;5005504;28;96756;-67
2022/05/01 05:06:52;;;;;;;11.57;3.88;;;;;;;16.23;39.72;101872.25;5007671;28;97735;-67
2022/05/01 05:12:06;;;;;;;9.73;3.67;;;;;;;15.41;40.51;101884.34;4999127;28;96851;-68
2022/05/01 05:14:32;;;;;;;7.78;3.97;;;;;;;15.47;40.82;101885.91;5001047;28;96905;-67
2022/05/01 05:17:00;;;;;;;7.90;4.25;;;;;;;15.80;40.37;101876.66;5004757;28;98961;-67
2022/05/01 05:19:26;;;;;;;8.10;4.05;;;;;;;15.92;40.12;101885.94;5006120;28;98240;-67
2022/05/01 05:21:53;;;;;;;11.93;3.88;;;;;;;16.25;39.32;101884.59;5003702;28;96812;-68
2022/05/01 05:24:20;;;;;;;9.30;3.95;;;;;;;15.72;40.18;101892.06;5002033;28;96890;-68
2022/05/01 05:26:47;;;;;;;8.75;3.92;;;;;;;15.48;41.02;101893.84;4999629;28;99140;-67
2022/05/01 05:29:14;;;;;;;9.23;4.00;;;;;;;15.80;40.60;101897.09;5000093;28;99263;-67
2022/05/01 05:31:41;;;;;;;10.52;4.35;;;;;;;15.09;41.95;101895.31;4992903;28;98698;-68
2022/05/01 05:34:07;;;;;;;9.85;4.13;;;;;;;15.97;40.25;101891.09;5002489;28;97012;-68
2022/05/01 05:36:34;;;;;;;6.82;4.15;;;;;;;17.08;37.60;101888.16;5001255;28;99309;-67
2022/05/01 05:39:00;;;;;;;9.77;3.97;;;;;;;17.53;36.79;101890.53;5001269;28;99714;-67
2022/05/01 05:41:27;;;;;;;11.25;4.50;;;;;;;17.57;36.59;101890.41;5000263;28;97476;-68
2022/05/01 05:43:53;;;;;;;8.85;4.10;;;;;;;17.99;35.47;101884.84;5002782;28;98867;-68
2022/05/01 05:46:21;;;;;;;8.88;3.70;;;;;;;17.66;36.23;101888.19;5005959;28;99800;-67
2022/05/01 05:48:47;;;;;;;6.72;3.72;;;;;;;18.11;35.88;101884.28;5003003;28;99686;-67
2022/05/01 05:51:14;;;;;;;9.32;3.80;;;;;;;17.62;36.21;101893.75;5001142;28;97182;-67
2022/05/01 05:53:40;;;;;;;8.70;4.35;;;;;;;17.86;35.72;101895.25;5005558;28;97276;-67
2022/05/01 05:56:07;;;;;;;9.90;4.00;;;;;;;17.34;36.68;101900.34;4997890;28;98971;-68
2022/05/01 05:58:33;;;;;;;6.25;4.10;;;;;;;16.42;38.36;101897.22;4999817;28;100042;-67
2022/05/01 06:01:00;;;;;;;9.70;4.47;;;;;;;16.62;37.92;101889.28;5001866;28;96826;-67
2022/05/01 06:03:27;;;;;;;9.55;4.55;;;;;;;17.11;37.57;101903.19;5005883;28;96966;-68
2022/05/01 06:05:54;;;;;;;11.65;4.40;;;;;;;17.31;36.85;101907.63;4998854;28;100211;-66
2022/05/01 06:08:20;;;;;;;7.22;3.83;;;;;;;16.92;37.56;101908.47;4997728;28;99665;-68
2022/05/01 06:10:47;;;;;;;10.00;3.83;;;;;;;17.75;36.33;101901.13;5002019;28;97176;-68
2022/05/01 06:13:13;;;;;;;9.30;4.13;;;;;;;17.66;35.63;101906.03;5006042;28;96815;-68
2022/05/01 06:15:40;;;;;;;6.75;4.13;;;;;;;17.44;36.45;101906.13;5004762;28;98142;-68
2022/05/01 06:18:06;;;;;;;10.65;4.25;;;;;;;17.27;37.02;101900.66;5006668;28;98901;-69
2022/05/01 06:20:34;;;;;;;7.97;3.83;;;;;;;18.08;35.71;101897.78;5008434;28;96793;-69
2022/05/01 06:23:00;;;;;;;8.05;3.88;;;;;;;17.57;36.46;101907.31;5002078;28;96851;-69
2022/05/01 06:25:27;;;;;;;10.13;4.32;;;;;;;17.31;37.15;101907.63;5006668;28;99149;-67
2022/05/01 06:27:53;;;;;;;7.13;3.95;;;;;;;18.23;35.95;101902.41;5007641;28;101738;-68
2022/05/01 06:30:20;;;;;;;10.82;4.22;;;;;;;18.64;35.06;101909.22;5008536;28;98574;-68
2022/05/01 06:32:47;;;;;;;10.00;4.75;;;;;;;18.60;35.17;101909.47;5008373;28;96799;-67
2022/05/01 06:35:14;;;;;;;10.60;5.05;;;;;;;17.54;37.65;101907.44;5005399;28;98674;-69
2022/05/01 06:37:43;;;;;;;10.35;4.65;;;;;;;17.19;38.46;101910.84;5003196;28;101274;-68
2022/05/01 06:40:10;;;;;;;12.55;5.43;;;;;;;17.01;38.82;101909.84;5005459;28;96741;-68
2022/05/01 06:42:37;;;;;;;8.75;5.53;;;;;;;17.61;37.60;101910.72;5004867;28;96893;-68
2022/05/01 06:45:04;;;;;;;20.95;4.85;;;;;;;17.44;37.90;101911.47;5003722;28;98474;-68
2022/05/01 06:47:31;;;;;;;11.65;4.20;;;;;;;17.04;38.91;101920.41;5001009;28;98886;-69
2022/05/01 06:49:58;;;;;;;6.13;3.80;;;;;;;17.03;39.05;101924.00;5007364;28;96836;-68
2022/05/01 06:52:25;;;;;;;9.75;4.85;;;;;;;17.56;37.53;101921.59;5004696;28;97690;-67
2022/05/01 06:54:53;;;;;;;10.40;4.57;;;;;;;17.95;37.03;101918.03;5004164;28;97595;-67
2022/05/01 06:57:20;;;;;;;11.93;4.88;;;;;;;18.34;36.29;101918.78;4997083;28;98919;-68
2022/05/01 06:59:47;;;;;;;7.05;4.25;;;;;;;18.37;36.00;101917.78;5004478;28;96695;-68
2022/05/01 07:02:14;;;;;;;13.80;5.10;;;;;;;18.09;36.44;101916.44;5008789;28;96866;-68
2022/05/01 07:04:41;;;;;;;9.48;4.60;;;;;;;17.95;36.76;101924.25;5008546;28;99551;-67
2022/05/01 07:07:07;;;;;;;9.75;4.60;;;;;;;17.95;36.69;101921.56;4998799;28;99044;-67
2022/05/01 07:09:33;;;;;;;10.52;5.00;;;;;;;18.70;35.47;101922.34;5005729;28;96816;-69
2022/05/01 07:12:01;;;;;;;10.02;4.38;;;;;;;18.61;35.86;101930.81;5011323;28;97019;-68
2022/05/01 07:14:28;;;;;;;11.27;4.55;;;;;;;19.04;34.87;101923.25;5005568;28;99445;-69
2022/05/01 07:16:54;;;;;;;9.70;4.50;;;;;;;19.89;33.29;101921.34;5007233;28;99412;-68
2022/05/01 07:19:21;;;;;;;15.23;4.55;;;;;;;18.94;34.80;101922.00;5006000;28;97581;-68
2022/05/01 07:21:47;;;;;;;8.25;4.03;;;;;;;19.01;34.75;101918.06;5001699;28;96882;-68
2022/05/01 07:24:14;;;;;;;8.32;4.97;;;;;;;19.24;34.54;101923.06;5000044;28;98184;-67
2022/05/01 07:26:40;;;;;;;8.00;4.40;;;;;;;18.99;34.48;101918.16;4997160;28;101211;-69
2022/05/01 07:29:08;;;;;;;14.77;3.53;;;;;;;18.94;34.18;101917.53;4997172;28;97278;-68
2022/05/01 07:31:35;;;;;;;12.05;3.60;;;;;;;18.24;35.33;101920.19;5000742;28;96852;-67
2022/05/01 07:34:01;;;;;;;8.27;3.83;;;;;;;18.22;35.43;101914.91;5006263;28;99496;-68
2022/05/01 07:36:28;;;;;;;8.25;4.18;;;;;;;18.29;35.76;101919.00;4999888;28;99276;-67
2022/05/01 07:38:54;;;;;;;7.57;3.75;;;;;;;18.34;35.53;101916.09;4998502;28;97163;-68
2022/05/01 07:41:21;;;;;;;9.23;3.40;;;;;;;18.32;34.07;101918.84;5003787;28;97116;-69
2022/05/01 07:43:48;;;;;;;10.38;3.35;;;;;;;18.73;33.52;101917.75;5003298;28;99523;-68
2022/05/01 07:46:15;;;;;;;14.05;4.30;;;;;;;18.88;33.95;101923.19;4996628;28;98915;-68
2022/05/01 07:48:42;;;;;;;5.90;3.50;;;;;;;18.96;33.29;101914.78;5005231;28;96995;-66
2022/05/01 07:51:08;;;;;;;6.55;3.55;;;;;;;18.67;33.86;101916.25;5004492;28;96810;-67
2022/05/01 07:53:37;;;;;;;9.52;3.35;;;;;;;19.10;33.93;101914.91;5000347;28;98937;-68
2022/05/01 07:56:06;;;;;;;6.00;2.92;;;;;;;19.47;33.18;101917.41;5000257;28;100209;-69
2022/05/01 07:58:33;;;;;;;12.57;3.92;;;;;;;19.29;33.05;101913.00;5000230;28;98564;-69
2022/05/01 08:01:01;;;;;;;10.70;3.42;;;;;;;19.42;32.93;101918.56;5000673;28;98603;-68
2022/05/01 08:06:13;;;;;;;13.18;3.40;;;;;;;20.93;30.41;101913.53;5003278;28;96770;-68
2022/05/01 08:08:41;;;;;;;11.98;3.50;;;;;;;19.95;31.53;101920.16;4998077;28;98871;-68
2022/05/01 08:11:10;;;;;;;7.07;3.42;;;;;;;20.64;30.84;101915.25;5002051;28;97218;-70
2022/05/01 08:13:36;;;;;;;9.48;3.50;;;;;;;21.06;29.88;101906.44;5004478;28;99345;-70
2022/05/01 08:16:03;;;;;;;9.55;3.20;;;;;;;21.35;29.49;101910.03;5003146;28;97665;-70
2022/05/01 08:21:16;;;;;;;5.07;3.25;;;;;;;22.03;28.61;101904.81;4998142;28;98901;-72
2022/05/01 08:23:43;;;;;;;6.43;3.22;;;;;;;21.76;28.82;101912.81;5000630;28;98602;-71
2022/05/01 08:26:11;;;;;;;8.85;3.60;;;;;;;21.37;29.08;101913.50;4999540;28;98026;-70
2022/05/01 08:28:39;;;;;;;7.00;3.30;;;;;;;20.35;30.41;101916.09;5003112;28;97162;-71
2022/05/01 08:31:07;;;;;;;8.07;3.13;;;;;;;20.29;30.24;101907.38;4999868;28;98880;-72
2022/05/01 08:33:35;;;;;;;10.18;3.13;;;;;;;20.01;30.81;101912.63;5000501;28;97578;-69
2022/05/01 08:36:03;;;;;;;5.72;3.20;;;;;;;20.12;30.55;101915.56;4992559;28;99142;-71
2022/05/01 08:38:30;;;;;;;13.00;3.63;;;;;;;20.11;30.26;101908.44;4997140;28;97346;-70
2022/05/01 08:40:58;;;;;;;5.45;2.75;;;;;;;20.50;30.33;101912.50;4999221;28;97435;-71
2022/05/01 08:43:26;;;;;;;6.70;2.58;;;;;;;19.90;30.49;101912.34;4998373;28;97713;-70
2022/05/01 08:46:06;;;;;;;6.70;3.10;;;;;;;19.14;31.15;101912.94;4999591;28;101947;-70
2022/05/01 08:48:42;;;;;;;6.95;3.10;;;;;;;19.52;31.08;101919.81;4997442;28;97833;-70
2022/05/01 08:51:09;;;;;;;5.60;2.50;;;;;;;19.89;30.55;101919.53;5001141;28;96983;-70
2022/05/01 08:53:37;;;;;;;8.27;3.08;;;;;;;19.98;29.72;101918.16;4996772;28;98467;-70
2022/05/01 08:56:07;;;;;;;7.80;3.22;;;;;;;19.91;29.91;101916.75;4998022;28;98386;-69
2022/05/01 08:58:35;;;;;;;10.05;3.35;;;;;;;20.13;29.70;101917.28;4998267;28;96792;-68
2022/05/01 09:01:01;;;;;;;8.02;2.80;;;;;;;19.82;30.03;101917.28;5004059;28;98122;-70
2022/05/01 09:03:28;;;;;;;6.45;2.92;;;;;;;20.17;29.52;101907.22;4996596;28;98067;-70
2022/05/01 09:05:59;;;;;;;4.53;2.45;;;;;;;20.17;29.56;101908.09;4993887;28;99497;-70
2022/05/01 09:08:26;;;;;;;7.97;2.40;;;;;;;19.86;30.35;101914.34;5002858;28;96765;-70
2022/05/01 09:10:53;;;;;;;11.05;3.13;;;;;;;20.16;30.12;101913.53;5005187;28;98425;-69
2022/05/01 09:13:23;;;;;;;8.90;2.88;;;;;;;20.52;29.82;101910.59;5008306;28;97782;-70
2022/05/01 09:15:50;;;;;;;8.63;2.92;;;;;;;20.55;29.62;101922.00;5006937;28;98843;-69
2022/05/01 09:18:16;;;;;;;12.00;4.05;;;;;;;20.32;29.51;101918.91;4997919;28;98873;-69
2022/05/01 09:21:02;;;;;;;7.57;2.75;;;;;;;19.65;30.76;101912.84;4999705;28;97903;-71
2022/05/01 09:23:36;;;;;;;7.77;3.00;;;;;;;19.85;30.34;101917.09;4992441;28;98920;-70
2022/05/01 09:26:03;;;;;;;11.45;4.20;;;;;;;20.62;28.90;101911.78;4998187;28;97742;-68
2022/05/01 09:28:29;;;;;;;10.07;3.70;;;;;;;21.07;28.45;101917.06;4993836;28;97749;-69
2022/05/01 09:30:56;;;;;;;9.25;2.78;;;;;;;21.07;27.80;101911.69;4995983;28;98616;-70
2022/05/01 09:33:25;;;;;;;5.55;3.08;;;;;;;20.10;29.46;101916.59;4994045;28;99469;-70
2022/05/01 09:35:52;;;;;;;9.77;2.95;;;;;;;19.98;29.71;101918.16;4996380;28;100679;-70
2022/05/01 09:38:22;;;;;;;6.80;2.47;;;;;;;19.79;30.14;101915.63;4997398;28;97008;-71
2022/05/01 09:40:50;;;;;;;5.10;2.13;;;;;;;19.18;30.51;101915.38;5000101;28;97259;-70
2022/05/01 09:43:34;;;;;;;7.88;2.38;;;;;;;19.33;30.27;101916.38;4989668;28;98819;-70
2022/05/01 09:46:15;;;;;;;6.55;2.58;;;;;;;20.17;29.11;101908.09;4996519;28;100931;-70
2022/05/01 09:48:43;;;;;;;11.30;2.85;;;;;;;20.15;28.97;101914.53;4999535;28;97099;-70
2022/05/01 09:51:17;;;;;;;5.55;2.40;;;;;;;20.15;28.77;101914.53;4998510;28;98777;-70
2022/05/01 09:53:46;;;;;;;11.60;3.10;;;;;;;19.25;29.59;101915.91;5004435;28;98178;-68
2022/05/01 09:56:13;;;;;;;3.65;2.60;;;;;;;19.50;29.75;101911.84;4997053;28;98782;-68
2022/05/01 09:58:40;;;;;;;6.97;2.17;;;;;;;19.28;30.05;101905.91;5002653;28;96981;-68
2022/05/01 10:01:12;;;;;;;4.13;1.90;;;;;;;19.62;29.52;101907.66;5003015;28;97490;-68
2022/05/01 10:03:43;;;;;;;5.22;2.17;;;;;;;20.11;28.84;101905.78;4996858;28;99308;-68
2022/05/01 10:06:12;;;;;;;3.72;2.13;;;;;;;20.38;28.49;101905.16;4998297;28;99059;-68
2022/05/01 10:08:39;;;;;;;3.75;1.73;;;;;;;20.67;27.94;101898.97;4996297;28;98239;-69
2022/05/01 10:11:08;;;;;;;3.97;1.92;;;;;;;20.51;27.73;101907.06;4999133;28;98700;-69
2022/05/01 10:13:36;;;;;;;7.90;3.50;;;;;;;19.55;29.60;101900.03;4998669;28;99538;-71
2022/05/01 10:16:07;;;;;;;6.70;3.78;;;;;;;20.03;29.17;101902.66;4998877;28;98935;-71
2022/05/01 10:18:34;;;;;;;6.85;2.25;;;;;;;19.63;29.46;101905.81;4999571;28;97174;-70
2022/05/01 10:21:02;;;;;;;3.35;1.50;;;;;;;19.17;29.82;101902.03;5000831;28;97921;-70
2022/05/01 10:23:29;;;;;;;8.38;1.77;;;;;;;19.37;29.78;101909.88;5000141;28;101091;-71
2022/05/01 10:26:01;;;;;;;5.72;2.03;;;;;;;19.52;29.55;101905.56;5005227;28;100722;-68
2022/05/01 10:28:44;;;;;;;4.00;1.92;;;;;;;18.95;30.31;101902.31;4998298;28;98702;-69
2022/05/01 10:34:30;;;;;;;6.90;3.05;;;;;;;19.72;28.75;101897.28;4929530;28;98770;-68
2022/05/01 10:37:14;;;;;;;6.63;2.67;;;;;;;19.96;28.53;101901.25;4931768;28;98947;-69
2022/05/01 10:39:41;;;;;;;3.97;2.05;;;;;;;20.26;28.23;101891.47;4969939;28;97018;-68
2022/05/01 10:42:08;;;;;;;7.57;1.75;;;;;;;20.16;28.80;101895.63;5003071;28;98442;-68
2022/05/01 10:44:44;;;;;;;3.65;1.88;;;;;;;19.64;28.92;101897.69;4996643;28;99673;-69
2022/05/01 10:47:13;;;;;;;;;;;;;;;19.73;28.84;101901.69;4991015;28;98633;-68
2022/05/01 10:49:45;;;;;;;8.60;3.45;;;;;;;19.11;29.82;101896.06;5001175;28;97145;-68
2022/05/01 10:52:17;;;;;;;4.72;2.72;;;;;;;19.48;29.48;101892.34;4997751;28;97483;-68
2022/05/01 10:54:52;;;;;;;7.30;1.90;;;;;;;19.75;28.61;101894.44;4996597;28;99191;-68
2022/05/01 10:57:19;;;;;;;5.55;2.33;;;;;;;20.04;28.65;101887.41;4987775;28;98993;-68
2022/05/01 10:59:52;;;;;;;3.67;1.80;;;;;;;19.86;28.80;101895.56;4993552;28;97615;-67
2022/05/01 11:02:29;;;;;;;2.60;1.33;;;;;;;19.65;29.17;101895.88;4991327;28;98407;-68
2022/05/01 11:04:57;;;;;;;5.95;1.63;;;;;;;20.19;28.23;101892.78;4996552;28;99291;-68
2022/05/01 11:07:25;;;;;;;3.22;1.70;;;;;;;20.26;28.17;101891.47;5000491;28;102027;-66
2022/05/01 11:09:52;;;;;;;4.97;2.05;;;;;;;19.92;28.82;101888.97;5005399;28;96972;-69
2022/05/01 11:12:22;;;;;;;10.32;3.85;;;;;;;20.08;28.44;101892.53;5000843;28;98060;-67
2022/05/01 11:14:54;;;;;;;4.95;1.90;;;;;;;19.96;28.86;101882.47;4997209;28;102711;-69
2022/05/01 11:17:44;;;;;;;3.63;1.70;;;;;;;19.63;29.09;101889.72;4993485;28;99334;-68
2022/05/01 11:20:26;;;;;;;4.18;1.60;;;;;;;19.58;29.08;101887.31;4995039;28;99004;-68
2022/05/01 11:22:53;;;;;;;3.38;1.60;;;;;;;20.02;28.43;101887.50;4993524;28;97439;-69
2022/05/01 11:25:31;;;;;;;4.85;1.80;;;;;;;20.58;27.54;101878.00;4997644;28;98885;-69
2022/05/01 11:27:57;;;;;;;4.35;2.35;;;;;;;19.83;28.65;101884.13;4995499;28;101139;-69
2022/05/01 11:30:36;;;;;;;10.43;2.30;;;;;;;20.30;28.52;101873.38;4994244;28;97210;-68
2022/05/01 11:33:06;;;;;;;6.75;1.92;;;;;;;20.25;28.44;101873.66;4993295;28;97842;-69
2022/05/01 11:35:52;;;;;;;3.42;1.73;;;;;;;20.79;27.70;101870.50;4995829;28;97902;-70
2022/05/01 11:38:18;;;;;;;3.85;2.08;;;;;;;20.07;28.54;101873.84;4997801;28;98977;-70
2022/05/01 11:40:55;;;;;;;6.60;2.00;;;;;;;19.77;29.19;101882.66;5000313;28;97071;-70
2022/05/01 11:43:22;;;;;;;6.18;2.17;;;;;;;20.18;28.66;101872.25;4997246;28;97416;-69
2022/05/01 11:45:50;;;;;;;4.38;1.95;;;;;;;20.46;28.12;101865.31;4996633;28;99806;-70
2022/05/01 11:48:19;;;;;;;7.35;2.92;;;;;;;20.24;28.81;101871.03;4993659;28;99295;-70
2022/05/01 11:50:50;;;;;;;7.35;3.05;;;;;;;20.34;28.58;101868.72;4996039;28;98193;-70
2022/05/01 11:53:22;;;;;;;9.75;4.60;;;;;;;20.55;27.99;101867.44;4997934;28;99724;-69